createdAt,value
2022-11-07T00:03:14.233Z,32.22
2022-11-07T00:11:23.252Z,38.13
2022-11-07T00:19:32.021Z,38.40
2022-11-07T00:27:37.836Z,37.85
2022-11-07T00:35:48.326Z,33.20
2022-11-07T00:43:54.017Z,43.97
2022-11-07T00:52:03.508Z,33.95
2022-11-07T01:00:11.051Z,37.83
2022-11-07T01:08:19.343Z,38.67
2022-11-07T01:16:25.437Z,38.25
2022-11-07T01:24:33.963Z,38.58
2022-11-07T01:32:39.673Z,39.80
2022-11-07T01:41:04.369Z,42.30
2022-11-07T01:49:15.802Z,35.97
2022-11-07T01:57:28.875Z,41.25
2022-11-07T02:05:38.253Z,33.87
2022-11-07T02:13:46.783Z,33.35
2022-11-07T02:21:59.081Z,32.78
2022-11-07T02:30:10.485Z,25.52
2022-11-07T02:38:20.541Z,28.40
2022-11-07T02:46:30.668Z,25.95
2022-11-07T02:54:36.605Z,28.42
2022-11-07T03:02:47.508Z,29.15
2022-11-07T03:10:53.115Z,29.50
2022-11-07T03:19:01.403Z,25.73
2022-11-07T03:27:07.128Z,30.30
2022-11-07T03:35:15.929Z,32.78
2022-11-07T03:43:21.609Z,32.95
2022-11-07T03:51:29.765Z,36.08
2022-11-07T03:59:35.239Z,32.65
2022-11-07T04:07:43.351Z,36.97
2022-11-07T04:16:01.683Z,35.63
2022-11-07T04:24:10.785Z,38.00
2022-11-07T04:32:16.326Z,30.95
2022-11-07T04:40:25.209Z,32.92
2022-11-07T04:48:30.993Z,34.15
2022-11-07T04:56:39.303Z,31.90
2022-11-07T05:04:44.980Z,34.08
2022-11-07T05:12:53.453Z,37.28
2022-11-07T05:20:59.612Z,41.00
2022-11-07T05:29:09.242Z,36.42
2022-11-07T05:37:16.136Z,37.45
2022-11-07T05:45:24.486Z,38.00
2022-11-07T05:53:30.839Z,40.83
2022-11-07T06:01:39.164Z,39.97
2022-11-07T06:09:44.963Z,43.55
2022-11-07T06:17:53.481Z,37.15
2022-11-07T06:25:59.199Z,40.53
2022-11-07T06:34:07.503Z,34.33
2022-11-07T06:42:13.142Z,36.55
2022-11-07T06:50:21.589Z,33.20
2022-11-07T06:58:27.216Z,38.70
2022-11-07T07:06:35.556Z,32.53
2022-11-07T07:14:41.464Z,30.00
2022-11-07T07:22:55.441Z,36.58
2022-11-07T07:31:22.556Z,34.95
2022-11-07T07:39:36.952Z,42.58
2022-11-07T07:47:46.134Z,31.15
2022-11-07T07:56:21.001Z,36.10
2022-11-07T08:04:26.630Z,30.90
2022-11-07T08:12:39.947Z,35.42
2022-11-07T08:21:25.515Z,30.90
2022-11-07T08:29:35.811Z,29.58
2022-11-07T09:13:29.662Z,24.45
2022-11-07T09:21:35.129Z,26.30
2022-11-07T09:29:43.266Z,21.02
2022-11-07T09:37:48.601Z,17.20
2022-11-07T09:46:04.361Z,25.00
2022-11-07T09:54:14.656Z,25.95
2022-11-07T10:02:24.795Z,16.20
2022-11-07T10:10:42.190Z,10.40
2022-11-07T10:19:03.353Z,15.13
2022-11-07T10:27:12.472Z,22.00
2022-11-07T10:35:27.535Z,16.08
2022-11-07T10:43:37.915Z,13.80
2022-11-07T10:51:46.782Z,11.18
2022-11-07T10:59:59.626Z,13.40
2022-11-07T11:08:19.751Z,10.00
2022-11-07T11:16:32.489Z,11.85
2022-11-07T11:24:40.694Z,11.63
2022-11-07T11:32:52.121Z,10.75
2022-11-07T11:41:09.478Z,14.15
2022-11-07T11:49:21.337Z,16.05
2022-11-07T11:57:35.813Z,12.93
2022-11-07T12:06:10.851Z,11.98
2022-11-07T12:14:51.662Z,18.50
2022-11-07T12:23:17.476Z,18.70
2022-11-07T12:39:57.479Z,13.18
2022-11-07T12:48:21.420Z,12.65
2022-11-07T12:56:33.710Z,13.85
2022-11-07T13:04:45.896Z,14.70
2022-11-07T13:13:02.104Z,15.93
2022-11-07T13:21:10.318Z,17.58
2022-11-07T13:29:27.649Z,17.73
2022-11-07T13:37:39.484Z,20.00
2022-11-07T13:45:51.147Z,30.42
2022-11-07T13:54:14.738Z,23.95
2022-11-07T14:02:25.343Z,22.88
2022-11-07T14:10:36.907Z,23.80
2022-11-07T14:18:49.822Z,27.00
2022-11-07T14:27:07.535Z,22.20
2022-11-07T14:35:13.258Z,25.88
2022-11-07T14:43:24.275Z,27.65
2022-11-07T14:51:31.547Z,25.45
2022-11-07T14:59:41.646Z,33.67
2022-11-07T15:07:51.406Z,35.22
2022-11-07T15:16:17.140Z,29.30
2022-11-07T15:24:38.932Z,33.45
2022-11-07T15:32:47.353Z,56.30
2022-11-07T15:40:54.720Z,47.35
2022-11-07T15:49:03.215Z,43.88
2022-11-07T15:57:10.302Z,45.60
2022-11-07T16:05:19.151Z,47.75
2022-11-07T16:13:24.818Z,47.97
2022-11-07T16:21:32.821Z,44.13
2022-11-07T16:29:38.272Z,50.67
2022-11-07T16:37:46.344Z,45.00
2022-11-07T16:45:54.667Z,44.72
2022-11-07T16:54:10.378Z,39.08
2022-11-07T17:11:16.473Z,39.40
2022-11-07T17:19:24.297Z,41.25
2022-11-07T17:27:32.246Z,43.25
2022-11-07T17:35:39.424Z,41.75
2022-11-07T17:43:47.714Z,51.85
2022-11-07T17:51:54.594Z,49.28
2022-11-07T18:28:53.213Z,56.80
2022-11-07T18:37:00.647Z,67.70
2022-11-07T18:45:11.128Z,62.35
2022-11-07T18:53:16.481Z,68.53
2022-11-07T19:01:28.335Z,65.38
2022-11-07T19:09:37.003Z,62.78
2022-11-07T19:17:44.978Z,61.50
2022-11-07T19:25:50.433Z,57.83
2022-11-07T19:33:58.301Z,54.90
